sensor_id;sensor_type;location;lat;lon;timestamp;P1;durP1;ratioP1;P2;durP2;ratioP2
18364;SDS011;9309;52.126;11.616;2023-05-15T00:01:15;3.43;;;3.20;;
18364;SDS011;9309;52.126;11.616;2023-05-15T00:03:42;4.07;;;3.77;;
18364;SDS011;9309;52.126;11.616;2023-05-15T00:06:09;3.60;;;3.30;;
18364;SDS011;9309;52.126;11.616;2023-05-15T00:08:36;4.27;;;4.07;;
18364;SDS011;9309;52.126;11.616;2023-05-15T00:11:03;4.07;;;3.67;;
18364;SDS011;9309;52.126;11.616;2023-05-15T00:13:31;3.80;;;3.50;;
18364;SDS011;9309;52.126;11.616;2023-05-15T00:15:57;4.30;;;3.90;;
18364;SDS011;9309;52.126;11.616;2023-05-15T00:18:24;4.00;;;3.77;;
18364;SDS011;9309;52.126;11.616;2023-05-15T00:20:51;3.77;;;3.47;;
18364;SDS011;9309;52.126;11.616;2023-05-15T00:23:18;3.97;;;3.47;;
18364;SDS011;9309;52.126;11.616;2023-05-15T00:25:44;4.20;;;3.73;;
18364;SDS011;9309;52.126;11.616;2023-05-15T00:28:11;5.33;;;3.73;;
18364;SDS011;9309;52.126;11.616;2023-05-15T00:30:39;3.73;;;3.53;;
18364;SDS011;9309;52.126;11.616;2023-05-15T00:33:06;4.50;;;4.10;;
18364;SDS011;9309;52.126;11.616;2023-05-15T00:35:33;4.83;;;4.37;;
18364;SDS011;9309;52.126;11.616;2023-05-15T00:38:00;4.13;;;3.73;;
18364;SDS011;9309;52.126;11.616;2023-05-15T00:40:26;4.33;;;3.97;;
18364;SDS011;9309;52.126;11.616;2023-05-15T00:42:54;4.47;;;4.00;;
18364;SDS011;9309;52.126;11.616;2023-05-15T00:45:22;4.03;;;3.73;;
18364;SDS011;9309;52.126;11.616;2023-05-15T00:47:53;6.20;;;4.97;;
18364;SDS011;9309;52.126;11.616;2023-05-15T00:50:21;4.67;;;4.10;;
18364;SDS011;9309;52.126;11.616;2023-05-15T00:52:49;4.80;;;4.40;;
18364;SDS011;9309;52.126;11.616;2023-05-15T00:55:16;4.07;;;3.87;;
18364;SDS011;9309;52.126;11.616;2023-05-15T00:57:43;5.03;;;4.50;;
18364;SDS011;9309;52.126;11.616;2023-05-15T01:00:11;4.33;;;3.90;;
18364;SDS011;9309;52.126;11.616;2023-05-15T01:02:40;5.43;;;4.33;;
18364;SDS011;9309;52.126;11.616;2023-05-15T01:05:09;5.50;;;4.20;;
18364;SDS011;9309;52.126;11.616;2023-05-15T01:07:51;7.30;;;4.00;;
18364;SDS011;9309;52.126;11.616;2023-05-15T01:10:22;8.57;;;4.20;;
18364;SDS011;9309;52.126;11.616;2023-05-15T01:12:50;4.47;;;4.07;;
18364;SDS011;9309;52.126;11.616;2023-05-15T01:15:19;6.13;;;3.77;;
18364;SDS011;9309;52.126;11.616;2023-05-15T01:17:46;4.47;;;4.10;;
18364;SDS011;9309;52.126;11.616;2023-05-15T01:20:14;4.50;;;4.00;;
18364;SDS011;9309;52.126;11.616;2023-05-15T01:22:45;5.00;;;4.27;;
18364;SDS011;9309;52.126;11.616;2023-05-15T01:25:32;5.47;;;4.57;;
18364;SDS011;9309;52.126;11.616;2023-05-15T01:28:12;4.57;;;4.17;;
18364;SDS011;9309;52.126;11.616;2023-05-15T01:30:44;4.60;;;4.20;;
18364;SDS011;9309;52.126;11.616;2023-05-15T01:33:14;4.80;;;4.33;;
18364;SDS011;9309;52.126;11.616;2023-05-15T01:35:48;4.97;;;4.50;;
18364;SDS011;9309;52.126;11.616;2023-05-15T01:38:22;5.10;;;4.53;;
18364;SDS011;9309;52.126;11.616;2023-05-15T01:40:58;4.77;;;3.57;;
18364;SDS011;9309;52.126;11.616;2023-05-15T01:43:31;5.03;;;4.53;;
18364;SDS011;9309;52.126;11.616;2023-05-15T01:46:00;4.90;;;4.17;;
18364;SDS011;9309;52.126;11.616;2023-05-15T01:48:28;5.00;;;4.43;;
18364;SDS011;9309;52.126;11.616;2023-05-15T01:51:00;6.40;;;3.77;;
18364;SDS011;9309;52.126;11.616;2023-05-15T01:53:29;4.03;;;3.53;;
18364;SDS011;9309;52.126;11.616;2023-05-15T01:55:57;5.87;;;4.37;;
18364;SDS011;9309;52.126;11.616;2023-05-15T01:58:25;7.07;;;3.83;;
18364;SDS011;9309;52.126;11.616;2023-05-15T02:00:54;4.83;;;4.43;;
18364;SDS011;9309;52.126;11.616;2023-05-15T02:03:22;6.37;;;5.13;;
18364;SDS011;9309;52.126;11.616;2023-05-15T02:05:49;4.50;;;4.13;;
18364;SDS011;9309;52.126;11.616;2023-05-15T02:08:19;6.40;;;4.43;;
18364;SDS011;9309;52.126;11.616;2023-05-15T02:10:46;5.30;;;4.80;;
18364;SDS011;9309;52.126;11.616;2023-05-15T02:13:16;5.57;;;5.00;;
18364;SDS011;9309;52.126;11.616;2023-05-15T02:15:43;5.37;;;4.60;;
18364;SDS011;9309;52.126;11.616;2023-05-15T02:18:13;5.50;;;4.77;;
18364;SDS011;9309;52.126;11.616;2023-05-15T02:20:40;6.77;;;4.90;;
18364;SDS011;9309;52.126;11.616;2023-05-15T02:23:07;9.80;;;5.50;;
18364;SDS011;9309;52.126;11.616;2023-05-15T02:25:37;6.67;;;4.73;;
18364;SDS011;9309;52.126;11.616;2023-05-15T02:28:09;6.50;;;4.70;;
18364;SDS011;9309;52.126;11.616;2023-05-15T02:30:44;4.80;;;4.23;;
18364;SDS011;9309;52.126;11.616;2023-05-15T02:33:17;5.17;;;4.50;;
18364;SDS011;9309;52.126;11.616;2023-05-15T02:35:52;4.90;;;4.50;;
18364;SDS011;9309;52.126;11.616;2023-05-15T02:38:24;4.87;;;4.43;;
18364;SDS011;9309;52.126;11.616;2023-05-15T02:40:55;6.10;;;4.60;;
18364;SDS011;9309;52.126;11.616;2023-05-15T02:43:23;5.30;;;4.73;;
18364;SDS011;9309;52.126;11.616;2023-05-15T02:45:51;6.53;;;5.60;;
18364;SDS011;9309;52.126;11.616;2023-05-15T02:48:19;4.80;;;4.40;;
18364;SDS011;9309;52.126;11.616;2023-05-15T02:50:47;7.00;;;5.07;;
18364;SDS011;9309;52.126;11.616;2023-05-15T02:53:14;7.57;;;5.57;;
18364;SDS011;9309;52.126;11.616;2023-05-15T02:55:40;4.97;;;4.50;;
18364;SDS011;9309;52.126;11.616;2023-05-15T02:58:07;7.37;;;5.63;;
18364;SDS011;9309;52.126;11.616;2023-05-15T03:00:34;5.30;;;4.87;;
18364;SDS011;9309;52.126;11.616;2023-05-15T03:03:01;5.03;;;4.60;;
18364;SDS011;9309;52.126;11.616;2023-05-15T03:05:29;6.97;;;5.10;;
18364;SDS011;9309;52.126;11.616;2023-05-15T03:07:56;5.73;;;5.03;;
18364;SDS011;9309;52.126;11.616;2023-05-15T03:10:22;4.80;;;4.50;;
18364;SDS011;9309;52.126;11.616;2023-05-15T03:12:49;5.00;;;4.60;;
18364;SDS011;9309;52.126;11.616;2023-05-15T03:15:16;7.37;;;4.77;;
18364;SDS011;9309;52.126;11.616;2023-05-15T03:17:43;5.13;;;4.70;;
18364;SDS011;9309;52.126;11.616;2023-05-15T03:20:10;6.77;;;5.43;;
18364;SDS011;9309;52.126;11.616;2023-05-15T03:22:40;5.50;;;4.90;;
18364;SDS011;9309;52.126;11.616;2023-05-15T03:25:07;7.47;;;5.23;;
18364;SDS011;9309;52.126;11.616;2023-05-15T03:27:35;7.03;;;4.83;;
18364;SDS011;9309;52.126;11.616;2023-05-15T03:30:02;5.07;;;4.63;;
18364;SDS011;9309;52.126;11.616;2023-05-15T03:32:30;4.60;;;4.20;;
18364;SDS011;9309;52.126;11.616;2023-05-15T03:34:57;7.77;;;5.37;;
18364;SDS011;9309;52.126;11.616;2023-05-15T03:37:23;5.57;;;4.57;;
18364;SDS011;9309;52.126;11.616;2023-05-15T03:39:52;6.37;;;4.83;;
18364;SDS011;9309;52.126;11.616;2023-05-15T03:42:19;6.60;;;5.00;;
18364;SDS011;9309;52.126;11.616;2023-05-15T03:44:47;9.27;;;4.80;;
18364;SDS011;9309;52.126;11.616;2023-05-15T03:47:14;6.13;;;5.27;;
18364;SDS011;9309;52.126;11.616;2023-05-15T03:49:41;8.23;;;5.27;;
18364;SDS011;9309;52.126;11.616;2023-05-15T03:52:08;10.67;;;6.10;;
18364;SDS011;9309;52.126;11.616;2023-05-15T03:54:35;6.73;;;4.80;;
18364;SDS011;9309;52.126;11.616;2023-05-15T03:57:04;6.10;;;5.60;;
18364;SDS011;9309;52.126;11.616;2023-05-15T03:59:31;7.17;;;4.93;;
18364;SDS011;9309;52.126;11.616;2023-05-15T04:01:58;6.73;;;5.77;;
18364;SDS011;9309;52.126;11.616;2023-05-15T04:04:25;8.43;;;5.57;;
18364;SDS011;9309;52.126;11.616;2023-05-15T04:06:51;6.67;;;5.30;;
18364;SDS011;9309;52.126;11.616;2023-05-15T04:09:18;9.77;;;6.53;;
18364;SDS011;9309;52.126;11.616;2023-05-15T04:11:45;5.30;;;4.97;;
18364;SDS011;9309;52.126;11.616;2023-05-15T04:14:13;7.03;;;5.43;;
18364;SDS011;9309;52.126;11.616;2023-05-15T04:16:39;9.10;;;5.73;;
18364;SDS011;9309;52.126;11.616;2023-05-15T04:19:06;10.00;;;5.60;;
18364;SDS011;9309;52.126;11.616;2023-05-15T04:21:32;7.53;;;5.70;;
18364;SDS011;9309;52.126;11.616;2023-05-15T04:23:59;6.63;;;6.00;;
18364;SDS011;9309;52.126;11.616;2023-05-15T04:26:26;6.13;;;5.53;;
18364;SDS011;9309;52.126;11.616;2023-05-15T04:28:52;5.87;;;5.37;;
18364;SDS011;9309;52.126;11.616;2023-05-15T04:31:22;8.73;;;6.27;;
18364;SDS011;9309;52.126;11.616;2023-05-15T04:33:48;5.60;;;5.10;;
18364;SDS011;9309;52.126;11.616;2023-05-15T04:36:15;8.50;;;5.60;;
18364;SDS011;9309;52.126;11.616;2023-05-15T04:38:41;10.07;;;6.70;;
18364;SDS011;9309;52.126;11.616;2023-05-15T04:41:08;7.13;;;6.00;;
18364;SDS011;9309;52.126;11.616;2023-05-15T04:43:35;8.97;;;5.73;;
18364;SDS011;9309;52.126;11.616;2023-05-15T04:46:01;7.50;;;5.50;;
18364;SDS011;9309;52.126;11.616;2023-05-15T04:48:30;8.47;;;5.90;;
18364;SDS011;9309;52.126;11.616;2023-05-15T04:50:56;7.90;;;6.30;;
18364;SDS011;9309;52.126;11.616;2023-05-15T04:53:23;12.50;;;6.03;;
18364;SDS011;9309;52.126;11.616;2023-05-15T04:55:50;6.37;;;5.43;;
18364;SDS011;9309;52.126;11.616;2023-05-15T04:58:16;6.83;;;5.80;;
18364;SDS011;9309;52.126;11.616;2023-05-15T05:00:43;6.13;;;5.20;;
18364;SDS011;9309;52.126;11.616;2023-05-15T05:03:10;8.33;;;5.47;;
18364;SDS011;9309;52.126;11.616;2023-05-15T05:05:38;6.10;;;5.43;;
18364;SDS011;9309;52.126;11.616;2023-05-15T05:08:04;6.93;;;5.53;;
18364;SDS011;9309;52.126;11.616;2023-05-15T05:10:31;8.73;;;5.83;;
18364;SDS011;9309;52.126;11.616;2023-05-15T05:12:58;7.13;;;5.33;;
18364;SDS011;9309;52.126;11.616;2023-05-15T05:15:24;7.87;;;5.87;;
18364;SDS011;9309;52.126;11.616;2023-05-15T05:17:51;6.20;;;5.60;;
18364;SDS011;9309;52.126;11.616;2023-05-15T05:20:18;7.10;;;5.30;;
18364;SDS011;9309;52.126;11.616;2023-05-15T05:22:46;9.90;;;5.73;;
18364;SDS011;9309;52.126;11.616;2023-05-15T05:25:13;10.00;;;5.87;;
18364;SDS011;9309;52.126;11.616;2023-05-15T05:27:40;7.03;;;5.23;;
18364;SDS011;9309;52.126;11.616;2023-05-15T05:30:07;6.07;;;5.47;;
18364;SDS011;9309;52.126;11.616;2023-05-15T05:32:34;9.73;;;4.73;;
18364;SDS011;9309;52.126;11.616;2023-05-15T05:35:01;9.50;;;4.93;;
18364;SDS011;9309;52.126;11.616;2023-05-15T05:37:28;7.00;;;4.70;;
18364;SDS011;9309;52.126;11.616;2023-05-15T05:39:56;5.40;;;4.33;;
18364;SDS011;9309;52.126;11.616;2023-05-15T05:42:22;5.77;;;4.70;;
18364;SDS011;9309;52.126;11.616;2023-05-15T05:44:49;7.53;;;5.00;;
18364;SDS011;9309;52.126;11.616;2023-05-15T05:47:16;4.77;;;4.37;;
18364;SDS011;9309;52.126;11.616;2023-05-15T05:49:42;5.40;;;4.90;;
18364;SDS011;9309;52.126;11.616;2023-05-15T05:52:12;4.37;;;3.97;;
18364;SDS011;9309;52.126;11.616;2023-05-15T05:54:39;4.97;;;4.50;;
18364;SDS011;9309;52.126;11.616;2023-05-15T05:57:08;7.27;;;4.43;;
18364;SDS011;9309;52.126;11.616;2023-05-15T05:59:34;4.97;;;4.60;;
18364;SDS011;9309;52.126;11.616;2023-05-15T06:02:01;4.63;;;4.23;;
18364;SDS011;9309;52.126;11.616;2023-05-15T06:04:28;4.87;;;4.33;;
18364;SDS011;9309;52.126;11.616;2023-05-15T06:06:57;4.70;;;4.13;;
18364;SDS011;9309;52.126;11.616;2023-05-15T06:09:23;6.53;;;4.40;;
18364;SDS011;9309;52.126;11.616;2023-05-15T06:11:50;9.20;;;5.00;;
18364;SDS011;9309;52.126;11.616;2023-05-15T06:14:18;5.40;;;4.57;;
18364;SDS011;9309;52.126;11.616;2023-05-15T06:16:44;4.90;;;4.50;;
18364;SDS011;9309;52.126;11.616;2023-05-15T06:19:11;4.77;;;4.33;;
18364;SDS011;9309;52.126;11.616;2023-05-15T06:21:38;6.97;;;4.43;;
18364;SDS011;9309;52.126;11.616;2023-05-15T06:24:05;5.07;;;4.60;;
18364;SDS011;9309;52.126;11.616;2023-05-15T06:26:31;4.63;;;4.17;;
18364;SDS011;9309;52.126;11.616;2023-05-15T06:28:58;5.23;;;4.63;;
18364;SDS011;9309;52.126;11.616;2023-05-15T06:31:26;6.63;;;5.10;;
18364;SDS011;9309;52.126;11.616;2023-05-15T06:33:53;5.37;;;4.57;;
18364;SDS011;9309;52.126;11.616;2023-05-15T06:36:19;4.50;;;4.10;;
18364;SDS011;9309;52.126;11.616;2023-05-15T06:38:46;4.70;;;4.30;;
18364;SDS011;9309;52.126;11.616;2023-05-15T06:41:12;4.50;;;4.10;;
18364;SDS011;9309;52.126;11.616;2023-05-15T06:43:39;6.57;;;4.50;;
18364;SDS011;9309;52.126;11.616;2023-05-15T06:46:06;4.90;;;4.50;;
18364;SDS011;9309;52.126;11.616;2023-05-15T06:48:34;5.03;;;4.57;;
18364;SDS011;9309;52.126;11.616;2023-05-15T06:51:01;6.13;;;4.90;;
18364;SDS011;9309;52.126;11.616;2023-05-15T06:53:28;6.50;;;4.30;;
18364;SDS011;9309;52.126;11.616;2023-05-15T06:55:55;4.83;;;4.43;;
18364;SDS011;9309;52.126;11.616;2023-05-15T06:58:22;5.80;;;4.17;;
18364;SDS011;9309;52.126;11.616;2023-05-15T07:00:49;4.33;;;4.03;;
18364;SDS011;9309;52.126;11.616;2023-05-15T07:03:15;8.33;;;4.37;;
18364;SDS011;9309;52.126;11.616;2023-05-15T07:05:43;6.40;;;4.20;;
18364;SDS011;9309;52.126;11.616;2023-05-15T07:08:10;4.30;;;3.90;;
18364;SDS011;9309;52.126;11.616;2023-05-15T07:10:37;5.83;;;4.17;;
18364;SDS011;9309;52.126;11.616;2023-05-15T07:13:03;5.93;;;4.50;;
18364;SDS011;9309;52.126;11.616;2023-05-15T07:15:30;5.50;;;4.80;;
18364;SDS011;9309;52.126;11.616;2023-05-15T07:17:57;4.13;;;3.83;;
18364;SDS011;9309;52.126;11.616;2023-05-15T07:20:23;5.10;;;4.60;;
18364;SDS011;9309;52.126;11.616;2023-05-15T07:22:51;6.63;;;3.70;;
18364;SDS011;9309;52.126;11.616;2023-05-15T07:25:18;4.63;;;4.20;;
18364;SDS011;9309;52.126;11.616;2023-05-15T07:27:44;4.27;;;3.87;;
18364;SDS011;9309;52.126;11.616;2023-05-15T07:30:12;4.57;;;4.13;;
18364;SDS011;9309;52.126;11.616;2023-05-15T07:32:39;6.93;;;4.07;;
18364;SDS011;9309;52.126;11.616;2023-05-15T07:35:05;5.20;;;3.77;;
18364;SDS011;9309;52.126;11.616;2023-05-15T07:37:32;5.70;;;4.10;;
18364;SDS011;9309;52.126;11.616;2023-05-15T07:40:01;3.73;;;3.43;;
18364;SDS011;9309;52.126;11.616;2023-05-15T07:42:28;6.50;;;4.30;;
18364;SDS011;9309;52.126;11.616;2023-05-15T07:44:55;6.73;;;3.93;;
18364;SDS011;9309;52.126;11.616;2023-05-15T07:47:22;3.60;;;3.30;;
18364;SDS011;9309;52.126;11.616;2023-05-15T07:49:49;3.83;;;3.60;;
18364;SDS011;9309;52.126;11.616;2023-05-15T07:52:15;7.53;;;4.37;;
18364;SDS011;9309;52.126;11.616;2023-05-15T07:54:42;6.63;;;3.57;;
18364;SDS011;9309;52.126;11.616;2023-05-15T07:57:10;7.53;;;3.83;;
18364;SDS011;9309;52.126;11.616;2023-05-15T07:59:38;7.63;;;3.93;;
18364;SDS011;9309;52.126;11.616;2023-05-15T08:02:05;10.93;;;4.00;;
18364;SDS011;9309;52.126;11.616;2023-05-15T08:04:32;4.00;;;3.67;;
18364;SDS011;9309;52.126;11.616;2023-05-15T08:06:58;4.47;;;4.03;;
18364;SDS011;9309;52.126;11.616;2023-05-15T08:09:25;6.90;;;4.63;;
18364;SDS011;9309;52.126;11.616;2023-05-15T08:11:53;4.63;;;3.70;;
18364;SDS011;9309;52.126;11.616;2023-05-15T08:14:22;4.00;;;3.63;;
18364;SDS011;9309;52.126;11.616;2023-05-15T08:16:49;4.00;;;3.70;;
18364;SDS011;9309;52.126;11.616;2023-05-15T08:19:15;7.17;;;3.83;;
18364;SDS011;9309;52.126;11.616;2023-05-15T08:21:43;5.53;;;3.50;;
18364;SDS011;9309;52.126;11.616;2023-05-15T08:24:09;3.30;;;3.10;;
18364;SDS011;9309;52.126;11.616;2023-05-15T08:26:36;3.80;;;3.43;;
18364;SDS011;9309;52.126;11.616;2023-05-15T08:29:03;3.13;;;2.93;;
18364;SDS011;9309;52.126;11.616;2023-05-15T08:31:31;5.37;;;3.60;;
18364;SDS011;9309;52.126;11.616;2023-05-15T08:33:57;3.23;;;3.00;;
18364;SDS011;9309;52.126;11.616;2023-05-15T08:36:24;3.60;;;2.93;;
18364;SDS011;9309;52.126;11.616;2023-05-15T08:38:51;4.23;;;3.03;;
18364;SDS011;9309;52.126;11.616;2023-05-15T08:41:20;5.80;;;3.00;;
18364;SDS011;9309;52.126;11.616;2023-05-15T08:43:56;3.30;;;3.07;;
18364;SDS011;9309;52.126;11.616;2023-05-15T08:46:23;3.10;;;3.00;;
18364;SDS011;9309;52.126;11.616;2023-05-15T08:48:52;2.90;;;2.70;;
18364;SDS011;9309;52.126;11.616;2023-05-15T08:51:19;3.33;;;3.03;;
18364;SDS011;9309;52.126;11.616;2023-05-15T08:53:47;3.70;;;3.40;;
18364;SDS011;9309;52.126;11.616;2023-05-15T08:56:14;4.20;;;3.10;;
18364;SDS011;9309;52.126;11.616;2023-05-15T08:58:42;2.83;;;2.63;;
18364;SDS011;9309;52.126;11.616;2023-05-15T09:01:09;2.92;;;2.67;;
18364;SDS011;9309;52.126;11.616;2023-05-15T09:03:37;2.80;;;2.75;;
18364;SDS011;9309;52.126;11.616;2023-05-15T09:06:05;4.22;;;2.97;;
18364;SDS011;9309;52.126;11.616;2023-05-15T09:08:34;3.15;;;2.95;;
18364;SDS011;9309;52.126;11.616;2023-05-15T09:11:01;3.45;;;3.33;;
18364;SDS011;9309;52.126;11.616;2023-05-15T09:13:29;8.20;;;3.58;;
18364;SDS011;9309;52.126;11.616;2023-05-15T09:15:55;2.78;;;2.67;;
18364;SDS011;9309;52.126;11.616;2023-05-15T09:18:22;3.20;;;3.00;;
18364;SDS011;9309;52.126;11.616;2023-05-15T09:20:49;3.10;;;3.00;;
18364;SDS011;9309;52.126;11.616;2023-05-15T09:23:24;3.40;;;3.15;;
18364;SDS011;9309;52.126;11.616;2023-05-15T09:25:52;3.15;;;2.95;;
18364;SDS011;9309;52.126;11.616;2023-05-15T09:28:24;3.42;;;3.13;;
18364;SDS011;9309;52.126;11.616;2023-05-15T09:30:56;2.67;;;2.50;;
18364;SDS011;9309;52.126;11.616;2023-05-15T09:33:28;3.13;;;2.90;;
18364;SDS011;9309;52.126;11.616;2023-05-15T09:35:56;2.70;;;2.50;;
18364;SDS011;9309;52.126;11.616;2023-05-15T09:38:24;2.83;;;2.63;;
18364;SDS011;9309;52.126;11.616;2023-05-15T09:40:59;2.90;;;2.70;;
18364;SDS011;9309;52.126;11.616;2023-05-15T09:43:27;3.00;;;2.83;;
18364;SDS011;9309;52.126;11.616;2023-05-15T09:45:54;2.63;;;2.55;;
18364;SDS011;9309;52.126;11.616;2023-05-15T09:48:21;2.72;;;2.63;;
18364;SDS011;9309;52.126;11.616;2023-05-15T09:50:48;3.00;;;2.80;;
18364;SDS011;9309;52.126;11.616;2023-05-15T09:53:15;2.78;;;2.67;;
18364;SDS011;9309;52.126;11.616;2023-05-15T09:55:43;2.88;;;2.67;;
18364;SDS011;9309;52.126;11.616;2023-05-15T09:58:10;2.72;;;2.47;;
18364;SDS011;9309;52.126;11.616;2023-05-15T10:00:38;3.83;;;3.08;;
18364;SDS011;9309;52.126;11.616;2023-05-15T10:03:06;2.97;;;2.83;;
18364;SDS011;9309;52.126;11.616;2023-05-15T10:05:33;3.08;;;2.90;;
18364;SDS011;9309;52.126;11.616;2023-05-15T10:08:01;3.05;;;2.90;;
18364;SDS011;9309;52.126;11.616;2023-05-15T10:10:28;3.17;;;2.97;;
18364;SDS011;9309;52.126;11.616;2023-05-15T10:12:57;3.13;;;2.92;;
18364;SDS011;9309;52.126;11.616;2023-05-15T10:15:27;3.25;;;2.95;;
18364;SDS011;9309;52.126;11.616;2023-05-15T10:17:55;3.15;;;3.00;;
18364;SDS011;9309;52.126;11.616;2023-05-15T10:20:22;3.08;;;2.88;;
18364;SDS011;9309;52.126;11.616;2023-05-15T10:22:50;3.58;;;3.17;;
18364;SDS011;9309;52.126;11.616;2023-05-15T10:25:20;2.97;;;2.88;;
18364;SDS011;9309;52.126;11.616;2023-05-15T10:27:51;2.83;;;2.72;;
18364;SDS011;9309;52.126;11.616;2023-05-15T10:30:21;2.90;;;2.65;;
18364;SDS011;9309;52.126;11.616;2023-05-15T10:32:49;2.85;;;2.65;;
18364;SDS011;9309;52.126;11.616;2023-05-15T10:35:17;2.42;;;2.22;;
18364;SDS011;9309;52.126;11.616;2023-05-15T10:37:44;2.75;;;2.55;;
18364;SDS011;9309;52.126;11.616;2023-05-15T10:40:13;4.05;;;2.85;;
18364;SDS011;9309;52.126;11.616;2023-05-15T10:42:41;3.90;;;2.83;;
18364;SDS011;9309;52.126;11.616;2023-05-15T10:45:10;3.03;;;2.90;;
18364;SDS011;9309;52.126;11.616;2023-05-15T10:47:38;3.08;;;2.85;;
18364;SDS011;9309;52.126;11.616;2023-05-15T10:50:06;2.85;;;2.65;;
18364;SDS011;9309;52.126;11.616;2023-05-15T10:52:34;3.08;;;2.85;;
18364;SDS011;9309;52.126;11.616;2023-05-15T10:55:04;3.10;;;2.85;;
18364;SDS011;9309;52.126;11.616;2023-05-15T10:57:32;2.88;;;2.67;;
18364;SDS011;9309;52.126;11.616;2023-05-15T10:59:58;2.70;;;2.60;;
18364;SDS011;9309;52.126;11.616;2023-05-15T11:02:28;3.03;;;2.83;;
18364;SDS011;9309;52.126;11.616;2023-05-15T11:05:26;2.80;;;2.60;;
18364;SDS011;9309;52.126;11.616;2023-05-15T11:10:51;3.40;;;2.60;;
18364;SDS011;9309;52.126;11.616;2023-05-15T11:13:18;2.50;;;2.40;;
18364;SDS011;9309;52.126;11.616;2023-05-15T11:15:45;4.00;;;2.83;;
18364;SDS011;9309;52.126;11.616;2023-05-15T11:18:13;2.67;;;2.47;;
18364;SDS011;9309;52.126;11.616;2023-05-15T11:20:42;2.70;;;2.55;;
18364;SDS011;9309;52.126;11.616;2023-05-15T11:23:36;2.70;;;2.33;;
18364;SDS011;9309;52.126;11.616;2023-05-15T11:26:04;2.17;;;2.08;;
18364;SDS011;9309;52.126;11.616;2023-05-15T11:28:34;2.50;;;2.40;;
18364;SDS011;9309;52.126;11.616;2023-05-15T11:31:06;1.90;;;1.80;;
18364;SDS011;9309;52.126;11.616;2023-05-15T11:33:33;4.53;;;2.20;;
18364;SDS011;9309;52.126;11.616;2023-05-15T11:36:04;2.03;;;1.92;;
18364;SDS011;9309;52.126;11.616;2023-05-15T11:38:35;2.10;;;1.85;;
18364;SDS011;9309;52.126;11.616;2023-05-15T11:41:11;2.00;;;1.90;;
18364;SDS011;9309;52.126;11.616;2023-05-15T11:43:43;2.80;;;2.20;;
18364;SDS011;9309;52.126;11.616;2023-05-15T11:46:11;2.53;;;2.42;;
18364;SDS011;9309;52.126;11.616;2023-05-15T11:48:39;2.45;;;2.00;;
18364;SDS011;9309;52.126;11.616;2023-05-15T11:51:12;2.28;;;2.08;;
18364;SDS011;9309;52.126;11.616;2023-05-15T11:53:42;3.08;;;1.88;;
18364;SDS011;9309;52.126;11.616;2023-05-15T11:56:11;1.90;;;1.83;;
18364;SDS011;9309;52.126;11.616;2023-05-15T11:58:41;2.65;;;2.35;;
18364;SDS011;9309;52.126;11.616;2023-05-15T12:01:09;1.98;;;1.88;;
18364;SDS011;9309;52.126;11.616;2023-05-15T12:03:36;2.45;;;2.25;;
18364;SDS011;9309;52.126;11.616;2023-05-15T12:06:02;2.22;;;1.90;;
18364;SDS011;9309;52.126;11.616;2023-05-15T12:08:31;2.95;;;2.08;;
18364;SDS011;9309;52.126;11.616;2023-05-15T12:10:58;2.13;;;2.00;;
18364;SDS011;9309;52.126;11.616;2023-05-15T12:13:26;2.20;;;2.10;;
18364;SDS011;9309;52.126;11.616;2023-05-15T12:15:53;2.40;;;2.20;;
18364;SDS011;9309;52.126;11.616;2023-05-15T12:18:20;4.28;;;2.35;;
18364;SDS011;9309;52.126;11.616;2023-05-15T12:20:50;4.82;;;2.78;;
18364;SDS011;9309;52.126;11.616;2023-05-15T12:23:19;3.20;;;1.77;;
18364;SDS011;9309;52.126;11.616;2023-05-15T12:25:48;2.17;;;2.00;;
18364;SDS011;9309;52.126;11.616;2023-05-15T12:28:19;2.00;;;2.00;;
18364;SDS011;9309;52.126;11.616;2023-05-15T12:30:46;6.53;;;2.55;;
18364;SDS011;9309;52.126;11.616;2023-05-15T12:33:13;7.22;;;2.22;;
18364;SDS011;9309;52.126;11.616;2023-05-15T12:35:41;4.10;;;2.35;;
18364;SDS011;9309;52.126;11.616;2023-05-15T12:38:12;2.63;;;2.35;;
18364;SDS011;9309;52.126;11.616;2023-05-15T12:40:41;2.55;;;2.45;;
18364;SDS011;9309;52.126;11.616;2023-05-15T12:43:11;2.22;;;2.10;;
18364;SDS011;9309;52.126;11.616;2023-05-15T12:45:40;2.53;;;2.42;;
18364;SDS011;9309;52.126;11.616;2023-05-15T12:48:07;1.98;;;1.98;;
18364;SDS011;9309;52.126;11.616;2023-05-15T12:50:39;2.85;;;2.53;;
18364;SDS011;9309;52.126;11.616;2023-05-15T12:53:06;2.38;;;2.28;;
18364;SDS011;9309;52.126;11.616;2023-05-15T12:55:35;5.35;;;2.67;;
18364;SDS011;9309;52.126;11.616;2023-05-15T12:58:04;2.00;;;1.83;;
18364;SDS011;9309;52.126;11.616;2023-05-15T13:00:34;3.47;;;2.20;;
18364;SDS011;9309;52.126;11.616;2023-05-15T13:03:02;2.13;;;2.03;;
18364;SDS011;9309;52.126;11.616;2023-05-15T13:05:30;2.38;;;2.08;;
18364;SDS011;9309;52.126;11.616;2023-05-15T13:07:58;1.98;;;1.88;;
18364;SDS011;9309;52.126;11.616;2023-05-15T13:10:25;1.83;;;1.83;;
18364;SDS011;9309;52.126;11.616;2023-05-15T13:12:53;2.88;;;2.40;;
18364;SDS011;9309;52.126;11.616;2023-05-15T13:15:24;2.20;;;2.10;;
18364;SDS011;9309;52.126;11.616;2023-05-15T13:17:56;2.22;;;2.00;;
18364;SDS011;9309;52.126;11.616;2023-05-15T13:20:25;2.33;;;2.22;;
18364;SDS011;9309;52.126;11.616;2023-05-15T13:22:52;2.55;;;2.45;;
18364;SDS011;9309;52.126;11.616;2023-05-15T13:25:19;2.00;;;1.90;;
18364;SDS011;9309;52.126;11.616;2023-05-15T13:27:46;2.15;;;2.10;;
18364;SDS011;9309;52.126;11.616;2023-05-15T13:30:14;2.50;;;2.20;;
18364;SDS011;9309;52.126;11.616;2023-05-15T13:32:41;2.13;;;2.03;;
18364;SDS011;9309;52.126;11.616;2023-05-15T13:35:09;2.20;;;2.10;;
18364;SDS011;9309;52.126;11.616;2023-05-15T13:37:36;5.20;;;1.98;;
18364;SDS011;9309;52.126;11.616;2023-05-15T13:40:04;1.98;;;1.88;;
18364;SDS011;9309;52.126;11.616;2023-05-15T13:42:33;2.30;;;2.20;;
18364;SDS011;9309;52.126;11.616;2023-05-15T13:45:01;2.17;;;2.17;;
18364;SDS011;9309;52.126;11.616;2023-05-15T13:47:28;2.15;;;2.05;;
18364;SDS011;9309;52.126;11.616;2023-05-15T13:49:55;1.90;;;1.90;;
18364;SDS011;9309;52.126;11.616;2023-05-15T13:52:23;2.05;;;1.95;;
18364;SDS011;9309;52.126;11.616;2023-05-15T13:54:50;2.33;;;2.22;;
18364;SDS011;9309;52.126;11.616;2023-05-15T13:57:17;1.90;;;1.90;;
18364;SDS011;9309;52.126;11.616;2023-05-15T13:59:44;2.90;;;2.70;;
18364;SDS011;9309;52.126;11.616;2023-05-15T14:02:11;2.10;;;2.00;;
18364;SDS011;9309;52.126;11.616;2023-05-15T14:04:37;2.22;;;2.10;;
18364;SDS011;9309;52.126;11.616;2023-05-15T14:07:04;2.00;;;1.90;;
18364;SDS011;9309;52.126;11.616;2023-05-15T14:09:32;2.85;;;2.22;;
18364;SDS011;9309;52.126;11.616;2023-05-15T14:11:59;1.92;;;1.90;;
18364;SDS011;9309;52.126;11.616;2023-05-15T14:14:26;7.72;;;2.80;;
18364;SDS011;9309;52.126;11.616;2023-05-15T14:16:52;2.35;;;1.90;;
18364;SDS011;9309;52.126;11.616;2023-05-15T14:19:19;3.10;;;2.08;;
18364;SDS011;9309;52.126;11.616;2023-05-15T14:21:45;2.92;;;2.22;;
18364;SDS011;9309;52.126;11.616;2023-05-15T14:24:12;2.08;;;1.98;;
18364;SDS011;9309;52.126;11.616;2023-05-15T14:26:40;1.88;;;1.85;;
18364;SDS011;9309;52.126;11.616;2023-05-15T14:29:08;2.28;;;2.17;;
18364;SDS011;9309;52.126;11.616;2023-05-15T14:31:35;2.15;;;2.05;;
18364;SDS011;9309;52.126;11.616;2023-05-15T14:34:01;4.60;;;2.30;;
18364;SDS011;9309;52.126;11.616;2023-05-15T14:36:29;2.17;;;2.08;;
18364;SDS011;9309;52.126;11.616;2023-05-15T14:38:56;2.42;;;2.22;;
18364;SDS011;9309;52.126;11.616;2023-05-15T14:41:22;2.03;;;1.95;;
18364;SDS011;9309;52.126;11.616;2023-05-15T14:43:51;2.30;;;2.10;;
18364;SDS011;9309;52.126;11.616;2023-05-15T14:46:17;2.38;;;2.08;;
18364;SDS011;9309;52.126;11.616;2023-05-15T14:48:44;2.15;;;2.10;;
18364;SDS011;9309;52.126;11.616;2023-05-15T14:51:11;2.63;;;2.53;;
18364;SDS011;9309;52.126;11.616;2023-05-15T14:53:38;2.33;;;2.00;;
18364;SDS011;9309;52.126;11.616;2023-05-15T14:56:05;2.38;;;2.30;;